aviador You're here:

EPWR Decoded Metar

WROCLAW in POLAND
Report Time2017-12-18 08:30:00
UTC Time2017-12-18 08:43:04
Flight Rules lifr LIFR
WindVRB at 02 kt
Visibility8000 m
Phenomena:N/A
Clouds:Scattered 002 Hf
Overcast 003 Hf
Expected CloudBase > 400 ft AGL from Temp-Dew spread
Ceiling300 ft
Temp-3°C (ISA -17)
Dew Point-4°C (93% RH)
AAT-6.2°C
QNH1026 hPa
Density Alt-2,100 ft
Elevation397 ft
Report Wrong Elevation
Raw Report
METAR EPWR 180830Z VRB02KT 8000 SCT002 OVC003 M03/M04 Q1026 R11/29//95=

Extra information for EPWR:More info

Metar Taf Metar & Taf Last 4 Metars F.Rules Stats Wind Profile Meteogram Temp Stats Airport Information Weather charts Add Link Nearby VenuesMetar ALERT Operation Metar Decoded Social comments